sensor_id;sensor_type;location;lat;lon;timestamp;P1;durP1;ratioP1;P2;durP2;ratioP2
27642;SDS011;15053;48.618;10.024;2023-04-22T00:01:12;7.80;;;5.00;;
27642;SDS011;15053;48.618;10.024;2023-04-22T00:03:39;8.52;;;5.80;;
27642;SDS011;15053;48.618;10.024;2023-04-22T00:06:07;7.28;;;5.60;;
27642;SDS011;15053;48.618;10.024;2023-04-22T00:08:34;12.57;;;6.07;;
27642;SDS011;15053;48.618;10.024;2023-04-22T00:11:00;8.43;;;6.43;;
27642;SDS011;15053;48.618;10.024;2023-04-22T00:13:27;13.00;;;6.72;;
27642;SDS011;15053;48.618;10.024;2023-04-22T00:15:54;9.60;;;6.47;;
27642;SDS011;15053;48.618;10.024;2023-04-22T00:18:20;8.52;;;6.78;;
27642;SDS011;15053;48.618;10.024;2023-04-22T00:20:47;8.00;;;6.28;;
27642;SDS011;15053;48.618;10.024;2023-04-22T00:23:13;8.25;;;6.47;;
27642;SDS011;15053;48.618;10.024;2023-04-22T00:25:40;10.23;;;7.25;;
27642;SDS011;15053;48.618;10.024;2023-04-22T00:28:06;7.93;;;6.15;;
27642;SDS011;15053;48.618;10.024;2023-04-22T00:30:33;8.77;;;6.75;;
27642;SDS011;15053;48.618;10.024;2023-04-22T00:33:00;8.05;;;6.78;;
27642;SDS011;15053;48.618;10.024;2023-04-22T00:35:27;10.85;;;6.47;;
27642;SDS011;15053;48.618;10.024;2023-04-22T00:37:54;8.55;;;6.20;;
27642;SDS011;15053;48.618;10.024;2023-04-22T00:40:21;11.75;;;7.25;;
27642;SDS011;15053;48.618;10.024;2023-04-22T00:42:48;8.77;;;7.03;;
27642;SDS011;15053;48.618;10.024;2023-04-22T00:45:16;9.55;;;6.35;;
27642;SDS011;15053;48.618;10.024;2023-04-22T00:47:44;7.32;;;5.82;;
27642;SDS011;15053;48.618;10.024;2023-04-22T00:50:11;8.57;;;5.97;;
27642;SDS011;15053;48.618;10.024;2023-04-22T00:52:38;10.80;;;6.45;;
27642;SDS011;15053;48.618;10.024;2023-04-22T00:55:05;8.23;;;6.10;;
27642;SDS011;15053;48.618;10.024;2023-04-22T00:57:32;9.10;;;5.63;;
27642;SDS011;15053;48.618;10.024;2023-04-22T01:00:01;10.25;;;5.07;;
27642;SDS011;15053;48.618;10.024;2023-04-22T01:02:28;8.23;;;4.68;;
27642;SDS011;15053;48.618;10.024;2023-04-22T01:04:56;5.65;;;4.50;;
27642;SDS011;15053;48.618;10.024;2023-04-22T01:07:24;5.00;;;4.10;;
27642;SDS011;15053;48.618;10.024;2023-04-22T01:09:50;6.47;;;5.43;;
27642;SDS011;15053;48.618;10.024;2023-04-22T01:12:17;9.82;;;7.30;;
27642;SDS011;15053;48.618;10.024;2023-04-22T01:14:43;9.50;;;6.82;;
27642;SDS011;15053;48.618;10.024;2023-04-22T01:17:10;10.25;;;8.13;;
27642;SDS011;15053;48.618;10.024;2023-04-22T01:19:37;11.50;;;7.55;;
27642;SDS011;15053;48.618;10.024;2023-04-22T01:22:04;13.18;;;7.57;;
27642;SDS011;15053;48.618;10.024;2023-04-22T01:24:33;9.23;;;7.55;;
27642;SDS011;15053;48.618;10.024;2023-04-22T01:27:00;10.25;;;8.00;;
27642;SDS011;15053;48.618;10.024;2023-04-22T01:29:27;10.25;;;7.57;;
27642;SDS011;15053;48.618;10.024;2023-04-22T01:31:54;10.77;;;7.57;;
27642;SDS011;15053;48.618;10.024;2023-04-22T01:34:21;10.38;;;8.13;;
27642;SDS011;15053;48.618;10.024;2023-04-22T01:36:48;9.70;;;7.43;;
27642;SDS011;15053;48.618;10.024;2023-04-22T01:39:16;9.57;;;7.80;;
27642;SDS011;15053;48.618;10.024;2023-04-22T01:41:43;9.95;;;7.70;;
27642;SDS011;15053;48.618;10.024;2023-04-22T01:44:10;12.27;;;7.68;;
27642;SDS011;15053;48.618;10.024;2023-04-22T01:46:36;10.02;;;7.38;;
27642;SDS011;15053;48.618;10.024;2023-04-22T01:49:04;10.00;;;7.70;;
27642;SDS011;15053;48.618;10.024;2023-04-22T01:51:31;9.32;;;8.23;;
27642;SDS011;15053;48.618;10.024;2023-04-22T01:53:57;10.68;;;8.50;;
27642;SDS011;15053;48.618;10.024;2023-04-22T01:56:24;10.02;;;7.22;;
27642;SDS011;15053;48.618;10.024;2023-04-22T01:58:51;13.07;;;7.63;;
27642;SDS011;15053;48.618;10.024;2023-04-22T02:01:18;9.95;;;7.28;;
27642;SDS011;15053;48.618;10.024;2023-04-22T02:03:44;9.32;;;6.43;;
27642;SDS011;15053;48.618;10.024;2023-04-22T02:06:12;8.70;;;6.25;;
27642;SDS011;15053;48.618;10.024;2023-04-22T02:08:38;8.27;;;6.20;;
27642;SDS011;15053;48.618;10.024;2023-04-22T02:11:05;10.60;;;6.60;;
27642;SDS011;15053;48.618;10.024;2023-04-22T02:13:38;8.90;;;6.00;;
27642;SDS011;15053;48.618;10.024;2023-04-22T02:16:06;8.85;;;6.13;;
27642;SDS011;15053;48.618;10.024;2023-04-22T02:18:33;9.75;;;6.22;;
27642;SDS011;15053;48.618;10.024;2023-04-22T02:21:00;8.27;;;6.20;;
27642;SDS011;15053;48.618;10.024;2023-04-22T02:23:26;8.05;;;5.60;;
27642;SDS011;15053;48.618;10.024;2023-04-22T02:25:54;8.80;;;5.82;;
27642;SDS011;15053;48.618;10.024;2023-04-22T02:28:21;8.45;;;5.55;;
27642;SDS011;15053;48.618;10.024;2023-04-22T02:30:47;8.43;;;5.47;;
27642;SDS011;15053;48.618;10.024;2023-04-22T02:33:14;7.32;;;5.63;;
27642;SDS011;15053;48.618;10.024;2023-04-22T02:35:40;12.02;;;6.25;;
27642;SDS011;15053;48.618;10.024;2023-04-22T02:38:07;7.50;;;6.05;;
27642;SDS011;15053;48.618;10.024;2023-04-22T02:40:33;8.82;;;6.05;;
27642;SDS011;15053;48.618;10.024;2023-04-22T02:43:00;7.65;;;6.10;;
27642;SDS011;15053;48.618;10.024;2023-04-22T02:45:27;11.43;;;6.93;;
27642;SDS011;15053;48.618;10.024;2023-04-22T02:47:54;7.88;;;6.03;;
27642;SDS011;15053;48.618;10.024;2023-04-22T02:50:20;9.13;;;6.55;;
27642;SDS011;15053;48.618;10.024;2023-04-22T02:52:47;9.82;;;7.07;;
27642;SDS011;15053;48.618;10.024;2023-04-22T02:55:13;8.43;;;6.07;;
27642;SDS011;15053;48.618;10.024;2023-04-22T02:57:40;8.48;;;6.40;;
27642;SDS011;15053;48.618;10.024;2023-04-22T03:00:07;11.80;;;7.00;;
27642;SDS011;15053;48.618;10.024;2023-04-22T03:02:35;12.35;;;7.25;;
27642;SDS011;15053;48.618;10.024;2023-04-22T03:05:08;9.20;;;6.35;;
27642;SDS011;15053;48.618;10.024;2023-04-22T03:07:35;11.35;;;6.28;;
27642;SDS011;15053;48.618;10.024;2023-04-22T03:10:02;9.27;;;6.25;;
27642;SDS011;15053;48.618;10.024;2023-04-22T03:12:29;7.82;;;6.05;;
27642;SDS011;15053;48.618;10.024;2023-04-22T03:14:55;8.70;;;6.38;;
27642;SDS011;15053;48.618;10.024;2023-04-22T03:17:25;13.15;;;6.60;;
27642;SDS011;15053;48.618;10.024;2023-04-22T03:19:53;8.38;;;5.90;;
27642;SDS011;15053;48.618;10.024;2023-04-22T03:22:20;7.68;;;5.60;;
27642;SDS011;15053;48.618;10.024;2023-04-22T03:24:48;9.98;;;6.15;;
27642;SDS011;15053;48.618;10.024;2023-04-22T03:27:15;8.35;;;6.47;;
27642;SDS011;15053;48.618;10.024;2023-04-22T03:29:42;8.82;;;6.15;;
27642;SDS011;15053;48.618;10.024;2023-04-22T03:32:08;10.80;;;6.15;;
27642;SDS011;15053;48.618;10.024;2023-04-22T03:34:36;8.15;;;5.38;;
27642;SDS011;15053;48.618;10.024;2023-04-22T03:37:06;7.35;;;5.80;;
27642;SDS011;15053;48.618;10.024;2023-04-22T03:39:32;8.40;;;6.20;;
27642;SDS011;15053;48.618;10.024;2023-04-22T03:41:59;8.80;;;6.65;;
27642;SDS011;15053;48.618;10.024;2023-04-22T03:44:27;9.93;;;6.68;;
27642;SDS011;15053;48.618;10.024;2023-04-22T03:46:54;7.57;;;5.85;;
27642;SDS011;15053;48.618;10.024;2023-04-22T03:49:26;8.95;;;5.93;;
27642;SDS011;15053;48.618;10.024;2023-04-22T03:51:54;8.15;;;6.47;;
27642;SDS011;15053;48.618;10.024;2023-04-22T03:54:23;8.98;;;6.30;;
27642;SDS011;15053;48.618;10.024;2023-04-22T03:56:51;8.00;;;5.82;;
27642;SDS011;15053;48.618;10.024;2023-04-22T03:59:19;9.18;;;5.88;;
27642;SDS011;15053;48.618;10.024;2023-04-22T04:01:49;8.15;;;6.07;;
27642;SDS011;15053;48.618;10.024;2023-04-22T04:04:19;6.88;;;5.68;;
27642;SDS011;15053;48.618;10.024;2023-04-22T04:06:51;7.75;;;5.55;;
27642;SDS011;15053;48.618;10.024;2023-04-22T04:09:18;9.13;;;6.00;;
27642;SDS011;15053;48.618;10.024;2023-04-22T04:11:45;8.20;;;6.07;;
27642;SDS011;15053;48.618;10.024;2023-04-22T04:14:12;8.38;;;6.07;;
27642;SDS011;15053;48.618;10.024;2023-04-22T04:16:45;9.90;;;6.50;;
27642;SDS011;15053;48.618;10.024;2023-04-22T04:19:19;13.15;;;6.22;;
27642;SDS011;15053;48.618;10.024;2023-04-22T04:21:46;8.23;;;6.40;;
27642;SDS011;15053;48.618;10.024;2023-04-22T04:24:13;10.10;;;6.40;;
27642;SDS011;15053;48.618;10.024;2023-04-22T04:26:46;12.02;;;6.28;;
27642;SDS011;15053;48.618;10.024;2023-04-22T04:29:18;10.98;;;6.82;;
27642;SDS011;15053;48.618;10.024;2023-04-22T04:31:55;11.27;;;7.10;;
27642;SDS011;15053;48.618;10.024;2023-04-22T04:34:23;9.13;;;6.10;;
27642;SDS011;15053;48.618;10.024;2023-04-22T04:36:49;12.02;;;6.82;;
27642;SDS011;15053;48.618;10.024;2023-04-22T04:39:22;10.48;;;6.57;;
27642;SDS011;15053;48.618;10.024;2023-04-22T04:41:49;9.38;;;6.03;;
27642;SDS011;15053;48.618;10.024;2023-04-22T04:44:21;10.35;;;6.72;;
27642;SDS011;15053;48.618;10.024;2023-04-22T04:46:48;11.75;;;7.40;;
27642;SDS011;15053;48.618;10.024;2023-04-22T04:49:15;9.35;;;6.70;;
27642;SDS011;15053;48.618;10.024;2023-04-22T04:52:00;9.00;;;6.20;;
27642;SDS011;15053;48.618;10.024;2023-04-22T04:54:27;8.60;;;6.82;;
27642;SDS011;15053;48.618;10.024;2023-04-22T04:56:54;10.40;;;6.78;;
27642;SDS011;15053;48.618;10.024;2023-04-22T04:59:23;9.63;;;6.97;;
27642;SDS011;15053;48.618;10.024;2023-04-22T05:01:49;11.55;;;7.40;;
27642;SDS011;15053;48.618;10.024;2023-04-22T05:04:16;8.50;;;6.65;;
27642;SDS011;15053;48.618;10.024;2023-04-22T05:06:43;8.32;;;6.88;;
27642;SDS011;15053;48.618;10.024;2023-04-22T05:09:12;9.70;;;6.45;;
27642;SDS011;15053;48.618;10.024;2023-04-22T05:11:39;9.73;;;6.25;;
27642;SDS011;15053;48.618;10.024;2023-04-22T05:14:12;8.63;;;5.40;;
27642;SDS011;15053;48.618;10.024;2023-04-22T05:16:40;7.60;;;6.20;;
27642;SDS011;15053;48.618;10.024;2023-04-22T05:19:08;9.02;;;5.95;;
27642;SDS011;15053;48.618;10.024;2023-04-22T05:21:35;8.70;;;5.95;;
27642;SDS011;15053;48.618;10.024;2023-04-22T05:24:02;8.68;;;5.95;;
27642;SDS011;15053;48.618;10.024;2023-04-22T05:26:29;7.10;;;5.57;;
27642;SDS011;15053;48.618;10.024;2023-04-22T05:28:55;8.02;;;5.88;;
27642;SDS011;15053;48.618;10.024;2023-04-22T05:31:22;6.50;;;5.53;;
27642;SDS011;15053;48.618;10.024;2023-04-22T05:33:49;7.55;;;5.47;;
27642;SDS011;15053;48.618;10.024;2023-04-22T05:36:17;10.52;;;6.20;;
27642;SDS011;15053;48.618;10.024;2023-04-22T05:38:46;9.35;;;5.57;;
27642;SDS011;15053;48.618;10.024;2023-04-22T05:41:13;9.43;;;5.70;;
27642;SDS011;15053;48.618;10.024;2023-04-22T05:43:40;9.20;;;5.40;;
27642;SDS011;15053;48.618;10.024;2023-04-22T05:46:13;7.35;;;5.28;;
27642;SDS011;15053;48.618;10.024;2023-04-22T05:48:41;8.38;;;5.97;;
27642;SDS011;15053;48.618;10.024;2023-04-22T05:51:18;10.90;;;6.18;;
27642;SDS011;15053;48.618;10.024;2023-04-22T05:53:45;6.72;;;5.85;;
27642;SDS011;15053;48.618;10.024;2023-04-22T05:56:11;9.00;;;6.65;;
27642;SDS011;15053;48.618;10.024;2023-04-22T05:58:38;9.52;;;6.72;;
27642;SDS011;15053;48.618;10.024;2023-04-22T06:01:09;8.75;;;6.00;;
27642;SDS011;15053;48.618;10.024;2023-04-22T06:03:53;9.65;;;6.82;;
27642;SDS011;15053;48.618;10.024;2023-04-22T06:06:21;9.98;;;6.53;;
27642;SDS011;15053;48.618;10.024;2023-04-22T06:08:48;11.77;;;6.78;;
27642;SDS011;15053;48.618;10.024;2023-04-22T06:11:14;9.02;;;6.55;;
27642;SDS011;15053;48.618;10.024;2023-04-22T06:13:41;10.07;;;6.60;;
27642;SDS011;15053;48.618;10.024;2023-04-22T06:16:08;9.95;;;6.63;;
27642;SDS011;15053;48.618;10.024;2023-04-22T06:18:34;8.55;;;6.25;;
27642;SDS011;15053;48.618;10.024;2023-04-22T06:21:06;8.45;;;6.15;;
27642;SDS011;15053;48.618;10.024;2023-04-22T06:23:34;7.30;;;6.10;;
27642;SDS011;15053;48.618;10.024;2023-04-22T06:26:01;7.00;;;5.43;;
27642;SDS011;15053;48.618;10.024;2023-04-22T06:28:28;8.48;;;6.00;;
27642;SDS011;15053;48.618;10.024;2023-04-22T06:30:58;6.47;;;5.47;;
27642;SDS011;15053;48.618;10.024;2023-04-22T06:33:27;8.00;;;5.43;;
27642;SDS011;15053;48.618;10.024;2023-04-22T06:35:54;7.68;;;5.65;;
27642;SDS011;15053;48.618;10.024;2023-04-22T06:38:20;8.80;;;5.15;;
27642;SDS011;15053;48.618;10.024;2023-04-22T06:41:20;8.73;;;6.78;;
27642;SDS011;15053;48.618;10.024;2023-04-22T06:43:48;8.43;;;5.45;;
27642;SDS011;15053;48.618;10.024;2023-04-22T06:46:48;14.07;;;6.43;;
27642;SDS011;15053;48.618;10.024;2023-04-22T06:49:46;5.68;;;4.75;;
27642;SDS011;15053;48.618;10.024;2023-04-22T06:52:22;6.72;;;5.03;;
27642;SDS011;15053;48.618;10.024;2023-04-22T06:54:51;6.75;;;4.43;;
27642;SDS011;15053;48.618;10.024;2023-04-22T06:57:18;7.43;;;4.90;;
27642;SDS011;15053;48.618;10.024;2023-04-22T06:59:44;8.77;;;4.80;;
27642;SDS011;15053;48.618;10.024;2023-04-22T07:02:13;9.35;;;4.75;;
27642;SDS011;15053;48.618;10.024;2023-04-22T07:04:40;5.97;;;4.47;;
27642;SDS011;15053;48.618;10.024;2023-04-22T07:07:07;6.10;;;4.60;;
27642;SDS011;15053;48.618;10.024;2023-04-22T07:09:34;6.00;;;4.95;;
27642;SDS011;15053;48.618;10.024;2023-04-22T07:12:01;5.93;;;4.57;;
27642;SDS011;15053;48.618;10.024;2023-04-22T07:14:29;6.65;;;4.65;;
27642;SDS011;15053;48.618;10.024;2023-04-22T07:16:55;4.53;;;3.78;;
27642;SDS011;15053;48.618;10.024;2023-04-22T07:19:22;4.85;;;3.90;;
27642;SDS011;15053;48.618;10.024;2023-04-22T07:21:48;5.90;;;3.83;;
27642;SDS011;15053;48.618;10.024;2023-04-22T07:24:15;5.18;;;3.83;;
27642;SDS011;15053;48.618;10.024;2023-04-22T07:26:42;5.90;;;3.78;;
27642;SDS011;15053;48.618;10.024;2023-04-22T07:29:09;5.28;;;4.05;;
27642;SDS011;15053;48.618;10.024;2023-04-22T07:31:38;7.28;;;4.75;;
27642;SDS011;15053;48.618;10.024;2023-04-22T07:34:04;7.07;;;3.53;;
27642;SDS011;15053;48.618;10.024;2023-04-22T07:36:31;4.72;;;4.13;;
27642;SDS011;15053;48.618;10.024;2023-04-22T07:38:58;5.22;;;3.90;;
27642;SDS011;15053;48.618;10.024;2023-04-22T07:41:24;5.35;;;4.40;;
27642;SDS011;15053;48.618;10.024;2023-04-22T07:43:51;6.95;;;4.80;;
27642;SDS011;15053;48.618;10.024;2023-04-22T07:46:18;4.97;;;3.97;;
27642;SDS011;15053;48.618;10.024;2023-04-22T07:48:44;6.88;;;4.07;;
27642;SDS011;15053;48.618;10.024;2023-04-22T07:51:11;6.80;;;3.78;;
27642;SDS011;15053;48.618;10.024;2023-04-22T07:53:37;5.35;;;4.35;;
27642;SDS011;15053;48.618;10.024;2023-04-22T07:56:04;7.13;;;4.53;;
27642;SDS011;15053;48.618;10.024;2023-04-22T07:58:30;6.70;;;4.82;;
27642;SDS011;15053;48.618;10.024;2023-04-22T08:00:57;8.02;;;4.25;;
27642;SDS011;15053;48.618;10.024;2023-04-22T08:03:23;5.18;;;4.13;;
27642;SDS011;15053;48.618;10.024;2023-04-22T08:05:50;6.45;;;4.55;;
27642;SDS011;15053;48.618;10.024;2023-04-22T08:08:17;5.53;;;4.22;;
27642;SDS011;15053;48.618;10.024;2023-04-22T08:10:43;11.75;;;4.90;;
27642;SDS011;15053;48.618;10.024;2023-04-22T08:13:10;9.05;;;4.55;;
27642;SDS011;15053;48.618;10.024;2023-04-22T08:15:36;5.75;;;4.35;;
27642;SDS011;15053;48.618;10.024;2023-04-22T08:18:03;7.88;;;3.85;;
27642;SDS011;15053;48.618;10.024;2023-04-22T08:20:29;4.30;;;3.38;;
27642;SDS011;15053;48.618;10.024;2023-04-22T08:22:56;4.88;;;3.88;;
27642;SDS011;15053;48.618;10.024;2023-04-22T08:25:26;6.20;;;3.40;;
27642;SDS011;15053;48.618;10.024;2023-04-22T08:27:53;3.58;;;3.00;;
27642;SDS011;15053;48.618;10.024;2023-04-22T08:30:19;3.78;;;3.13;;
27642;SDS011;15053;48.618;10.024;2023-04-22T08:32:46;5.63;;;3.53;;
27642;SDS011;15053;48.618;10.024;2023-04-22T08:35:12;4.28;;;3.50;;
27642;SDS011;15053;48.618;10.024;2023-04-22T08:37:39;4.00;;;3.22;;
27642;SDS011;15053;48.618;10.024;2023-04-22T08:40:06;6.57;;;3.67;;
27642;SDS011;15053;48.618;10.024;2023-04-22T08:42:33;4.43;;;3.75;;
27642;SDS011;15053;48.618;10.024;2023-04-22T08:45:04;4.57;;;3.28;;
27642;SDS011;15053;48.618;10.024;2023-04-22T08:47:31;3.70;;;3.30;;
27642;SDS011;15053;48.618;10.024;2023-04-22T08:50:01;4.53;;;3.13;;
27642;SDS011;15053;48.618;10.024;2023-04-22T08:52:29;4.03;;;3.60;;
27642;SDS011;15053;48.618;10.024;2023-04-22T08:54:56;3.33;;;2.88;;
27642;SDS011;15053;48.618;10.024;2023-04-22T08:57:23;5.75;;;3.55;;
27642;SDS011;15053;48.618;10.024;2023-04-22T08:59:49;3.85;;;3.33;;
27642;SDS011;15053;48.618;10.024;2023-04-22T09:02:20;10.40;;;3.50;;
27642;SDS011;15053;48.618;10.024;2023-04-22T09:04:49;7.82;;;3.30;;
27642;SDS011;15053;48.618;10.024;2023-04-22T09:07:21;3.72;;;3.33;;
27642;SDS011;15053;48.618;10.024;2023-04-22T09:09:50;4.97;;;3.45;;
27642;SDS011;15053;48.618;10.024;2023-04-22T09:12:18;3.35;;;2.83;;
27642;SDS011;15053;48.618;10.024;2023-04-22T09:14:44;3.83;;;2.97;;
27642;SDS011;15053;48.618;10.024;2023-04-22T09:17:14;3.40;;;2.90;;
27642;SDS011;15053;48.618;10.024;2023-04-22T09:19:42;4.30;;;3.03;;
27642;SDS011;15053;48.618;10.024;2023-04-22T09:22:12;3.13;;;2.67;;
27642;SDS011;15053;48.618;10.024;2023-04-22T09:24:50;5.95;;;3.30;;
27642;SDS011;15053;48.618;10.024;2023-04-22T09:27:17;4.40;;;2.30;;
27642;SDS011;15053;48.618;10.024;2023-04-22T09:29:47;3.05;;;2.20;;
27642;SDS011;15053;48.618;10.024;2023-04-22T09:32:18;4.85;;;2.60;;
27642;SDS011;15053;48.618;10.024;2023-04-22T09:37:14;4.47;;;2.78;;
27642;SDS011;15053;48.618;10.024;2023-04-22T09:39:46;2.90;;;1.83;;
27642;SDS011;15053;48.618;10.024;2023-04-22T09:42:17;4.18;;;2.72;;
27642;SDS011;15053;48.618;10.024;2023-04-22T09:44:45;8.93;;;2.60;;
27642;SDS011;15053;48.618;10.024;2023-04-22T09:47:13;3.22;;;2.42;;
27642;SDS011;15053;48.618;10.024;2023-04-22T09:49:44;4.05;;;2.33;;
27642;SDS011;15053;48.618;10.024;2023-04-22T09:52:21;4.20;;;2.95;;
27642;SDS011;15053;48.618;10.024;2023-04-22T09:54:50;4.80;;;2.78;;
27642;SDS011;15053;48.618;10.024;2023-04-22T09:57:20;5.88;;;2.92;;
27642;SDS011;15053;48.618;10.024;2023-04-22T09:59:49;6.03;;;2.88;;
27642;SDS011;15053;48.618;10.024;2023-04-22T10:02:16;2.95;;;2.65;;
27642;SDS011;15053;48.618;10.024;2023-04-22T10:04:42;3.60;;;3.10;;
27642;SDS011;15053;48.618;10.024;2023-04-22T10:07:09;3.63;;;3.03;;
27642;SDS011;15053;48.618;10.024;2023-04-22T10:09:35;4.57;;;2.42;;
27642;SDS011;15053;48.618;10.024;2023-04-22T10:12:03;4.00;;;3.00;;
27642;SDS011;15053;48.618;10.024;2023-04-22T10:14:30;5.68;;;2.90;;
27642;SDS011;15053;48.618;10.024;2023-04-22T10:16:58;4.90;;;2.80;;
27642;SDS011;15053;48.618;10.024;2023-04-22T10:19:26;3.83;;;2.50;;
27642;SDS011;15053;48.618;10.024;2023-04-22T10:21:57;5.40;;;2.25;;
27642;SDS011;15053;48.618;10.024;2023-04-22T10:24:26;4.13;;;2.20;;
27642;SDS011;15053;48.618;10.024;2023-04-22T10:26:55;2.97;;;1.80;;
27642;SDS011;15053;48.618;10.024;2023-04-22T10:29:23;3.42;;;2.28;;
27642;SDS011;15053;48.618;10.024;2023-04-22T10:31:55;2.75;;;2.00;;
27642;SDS011;15053;48.618;10.024;2023-04-22T10:34:29;3.10;;;2.13;;
27642;SDS011;15053;48.618;10.024;2023-04-22T10:37:02;3.90;;;2.35;;
27642;SDS011;15053;48.618;10.024;2023-04-22T10:39:31;4.30;;;2.08;;
27642;SDS011;15053;48.618;10.024;2023-04-22T10:44:28;3.17;;;2.28;;
27642;SDS011;15053;48.618;10.024;2023-04-22T10:47:09;2.53;;;1.90;;
27642;SDS011;15053;48.618;10.024;2023-04-22T10:49:36;2.85;;;2.20;;
27642;SDS011;15053;48.618;10.024;2023-04-22T10:52:05;5.93;;;2.15;;
27642;SDS011;15053;48.618;10.024;2023-04-22T10:57:06;3.90;;;1.90;;
27642;SDS011;15053;48.618;10.024;2023-04-22T10:59:35;2.60;;;1.90;;
27642;SDS011;15053;48.618;10.024;2023-04-22T11:02:07;2.17;;;1.85;;
27642;SDS011;15053;48.618;10.024;2023-04-22T11:04:34;2.17;;;1.42;;
27642;SDS011;15053;48.618;10.024;2023-04-22T11:07:16;1.48;;;1.30;;
27642;SDS011;15053;48.618;10.024;2023-04-22T11:15:08;3.30;;;1.75;;
27642;SDS011;15053;48.618;10.024;2023-04-22T11:17:36;2.72;;;2.00;;
27642;SDS011;15053;48.618;10.024;2023-04-22T11:20:03;2.13;;;1.85;;
27642;SDS011;15053;48.618;10.024;2023-04-22T11:22:35;4.18;;;1.80;;
27642;SDS011;15053;48.618;10.024;2023-04-22T11:25:03;1.52;;;1.38;;
27642;SDS011;15053;48.618;10.024;2023-04-22T11:27:31;3.42;;;1.67;;
27642;SDS011;15053;48.618;10.024;2023-04-22T11:30:00;1.38;;;1.05;;
27642;SDS011;15053;48.618;10.024;2023-04-22T11:32:30;1.27;;;0.98;;
27642;SDS011;15053;48.618;10.024;2023-04-22T11:34:57;1.10;;;0.90;;
27642;SDS011;15053;48.618;10.024;2023-04-22T11:37:24;1.50;;;1.10;;
27642;SDS011;15053;48.618;10.024;2023-04-22T11:39:50;1.40;;;1.00;;
27642;SDS011;15053;48.618;10.024;2023-04-22T11:42:37;1.30;;;1.20;;
27642;SDS011;15053;48.618;10.024;2023-04-22T11:45:05;3.40;;;1.63;;
27642;SDS011;15053;48.618;10.024;2023-04-22T11:47:32;1.17;;;1.05;;
27642;SDS011;15053;48.618;10.024;2023-04-22T11:50:00;1.50;;;1.30;;
27642;SDS011;15053;48.618;10.024;2023-04-22T11:52:46;1.60;;;1.02;;
27642;SDS011;15053;48.618;10.024;2023-04-22T11:55:18;2.78;;;1.48;;
27642;SDS011;15053;48.618;10.024;2023-04-22T12:00:27;1.80;;;1.52;;
27642;SDS011;15053;48.618;10.024;2023-04-22T12:03:02;1.60;;;1.33;;
27642;SDS011;15053;48.618;10.024;2023-04-22T12:05:34;2.42;;;1.40;;
27642;SDS011;15053;48.618;10.024;2023-04-22T12:08:06;1.42;;;1.33;;
27642;SDS011;15053;48.618;10.024;2023-04-22T12:10:38;2.03;;;1.40;;
27642;SDS011;15053;48.618;10.024;2023-04-22T12:13:09;1.40;;;1.30;;
27642;SDS011;15053;48.618;10.024;2023-04-22T12:15:43;1.17;;;1.10;;
27642;SDS011;15053;48.618;10.024;2023-04-22T12:18:10;2.13;;;1.30;;
27642;SDS011;15053;48.618;10.024;2023-04-22T12:20:38;1.30;;;1.20;;
27642;SDS011;15053;48.618;10.024;2023-04-22T12:23:12;3.20;;;1.52;;
27642;SDS011;15053;48.618;10.024;2023-04-22T12:25:42;1.42;;;1.33;;
27642;SDS011;15053;48.618;10.024;2023-04-22T12:28:08;1.30;;;1.20;;
27642;SDS011;15053;48.618;10.024;2023-04-22T12:30:35;1.67;;;1.15;;
27642;SDS011;15053;48.618;10.024;2023-04-22T12:33:01;4.03;;;1.38;;
27642;SDS011;15053;48.618;10.024;2023-04-22T12:35:28;1.70;;;1.40;;
27642;SDS011;15053;48.618;10.024;2023-04-22T12:37:54;2.53;;;2.03;;
27642;SDS011;15053;48.618;10.024;2023-04-22T12:40:21;1.52;;;1.42;;
27642;SDS011;15053;48.618;10.024;2023-04-22T12:42:47;4.00;;;1.80;;
27642;SDS011;15053;48.618;10.024;2023-04-22T12:45:14;1.70;;;1.60;;
27642;SDS011;15053;48.618;10.024;2023-04-22T12:47:41;3.45;;;1.52;;
27642;SDS011;15053;48.618;10.024;2023-04-22T12:50:08;1.73;;;1.45;;
27642;SDS011;15053;48.618;10.024;2023-04-22T12:52:34;1.50;;;1.40;;
27642;SDS011;15053;48.618;10.024;2023-04-22T12:55:01;1.90;;;1.10;;
27642;SDS011;15053;48.618;10.024;2023-04-22T12:57:28;1.77;;;1.60;;
27642;SDS011;15053;48.618;10.024;2023-04-22T12:59:54;1.40;;;1.30;;
27642;SDS011;15053;48.618;10.024;2023-04-22T13:02:21;1.83;;;1.67;;
27642;SDS011;15053;48.618;10.024;2023-04-22T13:04:48;2.42;;;1.63;;
27642;SDS011;15053;48.618;10.024;2023-04-22T13:07:14;5.03;;;2.08;;
27642;SDS011;15053;48.618;10.024;2023-04-22T13:09:42;1.80;;;1.30;;
27642;SDS011;15053;48.618;10.024;2023-04-22T13:12:09;3.80;;;1.80;;
27642;SDS011;15053;48.618;10.024;2023-04-22T13:14:36;2.72;;;1.60;;
27642;SDS011;15053;48.618;10.024;2023-04-22T13:17:02;2.80;;;1.58;;
27642;SDS011;15053;48.618;10.024;2023-04-22T13:19:29;3.95;;;1.88;;
27642;SDS011;15053;48.618;10.024;2023-04-22T13:21:56;2.67;;;1.45;;
27642;SDS011;15053;48.618;10.024;2023-04-22T13:24:23;2.75;;;1.70;;
27642;SDS011;15053;48.618;10.024;2023-04-22T13:26:49;1.58;;;1.48;;
27642;SDS011;15053;48.618;10.024;2023-04-22T13:29:16;1.83;;;1.60;;
27642;SDS011;15053;48.618;10.024;2023-04-22T13:31:42;2.78;;;1.70;;
27642;SDS011;15053;48.618;10.024;2023-04-22T13:34:12;3.17;;;1.70;;
27642;SDS011;15053;48.618;10.024;2023-04-22T13:36:38;4.95;;;1.98;;
27642;SDS011;15053;48.618;10.024;2023-04-22T13:39:04;11.68;;;4.93;;
27642;SDS011;15053;48.618;10.024;2023-04-22T13:41:31;2.00;;;1.70;;
27642;SDS011;15053;48.618;10.024;2023-04-22T13:43:58;9.88;;;4.85;;
27642;SDS011;15053;48.618;10.024;2023-04-22T13:46:24;21.25;;;7.93;;
27642;SDS011;15053;48.618;10.024;2023-04-22T13:48:52;8.13;;;2.72;;
27642;SDS011;15053;48.618;10.024;2023-04-22T13:51:19;5.55;;;2.13;;
27642;SDS011;15053;48.618;10.024;2023-04-22T13:53:45;5.00;;;2.05;;
27642;SDS011;15053;48.618;10.024;2023-04-22T13:56:12;2.05;;;1.60;;
27642;SDS011;15053;48.618;10.024;2023-04-22T13:58:39;2.08;;;1.40;;
27642;SDS011;15053;48.618;10.024;2023-04-22T14:01:07;5.53;;;2.08;;
27642;SDS011;15053;48.618;10.024;2023-04-22T14:03:34;2.05;;;1.45;;
27642;SDS011;15053;48.618;10.024;2023-04-22T14:06:01;3.65;;;1.83;;
27642;SDS011;15053;48.618;10.024;2023-04-22T14:08:29;2.00;;;1.70;;
27642;SDS011;15053;48.618;10.024;2023-04-22T14:10:55;4.15;;;2.30;;
27642;SDS011;15053;48.618;10.024;2023-04-22T14:13:22;3.17;;;2.25;;
27642;SDS011;15053;48.618;10.024;2023-04-22T14:15:48;2.42;;;1.88;;
27642;SDS011;15053;48.618;10.024;2023-04-22T14:18:15;3.75;;;2.85;;
27642;SDS011;15053;48.618;10.024;2023-04-22T14:20:42;3.20;;;2.60;;
27642;SDS011;15053;48.618;10.024;2023-04-22T14:23:10;2.08;;;1.65;;
27642;SDS011;15053;48.618;10.024;2023-04-22T14:25:37;8.48;;;2.20;;
27642;SDS011;15053;48.618;10.024;2023-04-22T14:28:03;3.75;;;2.13;;
27642;SDS011;15053;48.618;10.024;2023-04-22T14:30:30;4.18;;;2.40;;
27642;SDS011;15053;48.618;10.024;2023-04-22T14:32:57;3.15;;;1.88;;
27642;SDS011;15053;48.618;10.024;2023-04-22T14:35:24;3.97;;;2.20;;
27642;SDS011;15053;48.618;10.024;2023-04-22T14:37:50;2.00;;;1.77;;
27642;SDS011;15053;48.618;10.024;2023-04-22T14:40:16;2.33;;;1.65;;
27642;SDS011;15053;48.618;10.024;2023-04-22T14:42:45;1.98;;;1.77;;
27642;SDS011;15053;48.618;10.024;2023-04-22T14:45:12;1.48;;;1.38;;
27642;SDS011;15053;48.618;10.024;2023-04-22T14:47:39;2.53;;;1.92;;
27642;SDS011;15053;48.618;10.024;2023-04-22T14:50:06;3.80;;;1.70;;
27642;SDS011;15053;48.618;10.024;2023-04-22T14:52:33;2.95;;;1.80;;
27642;SDS011;15053;48.618;10.024;2023-04-22T14:54:59;12.13;;;8.52;;